Time;durP1;ratioP1;P1;durP2;ratioP2;P2;SDS_P1;SDS_P2;PMS_P1;PMS_P2;Temp;Humidity;BMP_temperature;BMP_pressure;BME280_temperature;BME280_humidity;BME280_pressure;Samples;Min_cycle;Max_cycle;Signal;HPM_P1;HPM_P2
2022/04/28 00:01:59;;;;;;;;;;;;;;;4.44;70.96;101410.20;85575;1336;23232;-74
2022/04/28 00:04:05;;;;;;;;;;;;;;;4.46;70.86;101406.04;85575;1338;22697;-79
2022/04/28 00:06:10;;;;;;;;;;;;;;;4.43;70.68;101410.18;85566;1339;23153;-80
2022/04/28 00:08:17;;;;;;;;;;;;;;;4.39;70.50;101408.27;85576;1338;22595;-80
2022/04/28 00:10:22;;;;;;;;;;;;;;;4.39;70.53;101411.21;85563;1336;23048;-73
2022/04/28 00:12:27;;;;;;;;;;;;;;;4.37;70.67;101409.13;85560;1336;23068;-73
2022/04/28 00:14:32;;;;;;;;;;;;;;;4.36;70.62;101409.80;85569;1336;23134;-73
2022/04/28 00:16:37;;;;;;;;;;;;;;;4.36;70.53;101412.23;85562;1335;23061;-73
2022/04/28 00:18:42;;;;;;;;;;;;;;;4.33;70.53;101407.55;84873;1336;1002240;-73
2022/04/28 00:20:47;;;;;;;;;;;;;;;4.30;70.68;101411.00;85567;1336;23054;-80
2022/04/28 00:22:51;;;;;;;;;;;;;;;4.29;70.71;101411.35;85571;1336;22555;-79
2022/04/28 00:24:59;;;;;;;;;;;;;;;4.27;70.68;101408.55;85553;1340;22585;-73
2022/04/28 00:27:04;;;;;;;;;;;;;;;4.24;70.79;101408.55;85416;1339;23180;-73
2022/04/28 00:29:12;;;;;;;;;;;;;;;4.21;70.67;101409.73;85567;1340;22981;-79
2022/04/28 00:31:16;;;;;;;;;;;;;;;4.17;70.82;101412.30;85559;1335;23067;-81
2022/04/28 00:33:21;;;;;;;;;;;;;;;4.15;70.98;101410.06;85578;1336;22474;-79
2022/04/28 00:35:26;;;;;;;;;;;;;;;4.12;70.91;101410.73;85585;1336;22490;-73
2022/04/28 00:37:30;;;;;;;;;;;;;;;4.07;71.02;101407.25;84841;1336;1002519;-73
2022/04/28 00:39:35;;;;;;;;;;;;;;;4.05;70.90;101407.77;85568;1336;22489;-80
2022/04/28 00:41:39;;;;;;;;;;;;;;;4.02;71.09;101406.70;85554;1340;23160;-80
2022/04/28 00:43:51;;;;;;;;;;;;;;;3.98;71.24;101404.79;85565;1341;22501;-80
2022/04/28 00:45:56;;;;;;;;;;;;;;;3.92;71.30;101408.55;85568;1336;23080;-73
2022/04/28 00:52:50;;;;;;;;;;;;;;;3.74;71.40;101406.88;85295;1342;22472;-79
2022/04/28 00:54:55;;;;;;;;;;;;;;;3.71;71.70;101409.11;85575;1338;23061;-73
2022/04/28 00:57:01;;;;;;;;;;;;;;;3.66;71.50;101406.84;85562;1336;23075;-73
2022/04/28 00:59:05;;;;;;;;;;;;;;;3.62;71.61;101410.42;85581;1341;22462;-76
2022/04/28 01:01:13;;;;;;;;;;;;;;;3.56;71.81;101407.63;85573;1341;22716;-73
2022/04/28 01:03:17;;;;;;;;;;;;;;;3.52;72.11;101406.56;85567;1338;23107;-73
2022/04/28 01:05:22;;;;;;;;;;;;;;;3.48;72.07;101405.84;85568;1339;23139;-79
2022/04/28 01:07:26;;;;;;;;;;;;;;;3.44;72.35;101406.49;85539;1337;23021;-79
2022/04/28 01:09:36;;;;;;;;;;;;;;;3.41;72.24;101404.75;85548;1339;22944;-79
2022/04/28 01:11:41;;;;;;;;;;;;;;;3.37;72.30;101405.75;85527;1339;22579;-80
2022/04/28 01:13:46;;;;;;;;;;;;;;;3.34;72.36;101405.38;85565;1336;23007;-79
2022/04/28 01:15:54;;;;;;;;;;;;;;;3.30;72.54;101404.99;84866;1337;1003009;-73
2022/04/28 01:17:58;;;;;;;;;;;;;;;3.26;72.61;101401.86;85564;1336;22456;-73
2022/04/28 01:20:08;;;;;;;;;;;;;;;3.22;72.63;101400.11;85567;1336;23074;-79
2022/04/28 01:22:16;;;;;;;;;;;;;;;3.19;72.73;101398.70;85567;1341;22481;-79
2022/04/28 01:24:20;;;;;;;;;;;;;;;3.16;72.76;101395.73;85563;1340;23212;-79
2022/04/28 01:26:24;;;;;;;;;;;;;;;3.12;72.91;101396.23;85557;1336;23049;-79
2022/04/28 01:28:29;;;;;;;;;;;;;;;3.08;73.10;101397.05;85572;1339;22517;-79
2022/04/28 01:30:36;;;;;;;;;;;;;;;3.05;73.11;101394.09;85586;1336;22559;-79
2022/04/28 01:32:43;;;;;;;;;;;;;;;3.01;73.10;101391.81;85568;1336;22585;-79
2022/04/28 01:34:48;;;;;;;;;;;;;;;2.99;73.23;101396.27;85451;1340;22499;-79
2022/04/28 01:36:52;;;;;;;;;;;;;;;2.99;73.27;101391.45;85567;1341;22463;-79
2022/04/28 01:38:57;;;;;;;;;;;;;;;2.99;73.34;101388.17;85564;1337;23100;-80
2022/04/28 01:41:01;;;;;;;;;;;;;;;3.01;73.52;101386.14;85575;1341;23115;-79
2022/04/28 01:43:06;;;;;;;;;;;;;;;3.05;73.55;101381.69;85556;1336;23117;-80
2022/04/28 01:45:11;;;;;;;;;;;;;;;3.11;73.57;101376.23;85562;1336;23130;-80
2022/04/28 01:47:15;;;;;;;;;;;;;;;3.17;73.79;101374.70;85567;1340;22463;-79
2022/04/28 01:49:20;;;;;;;;;;;;;;;3.22;73.86;101372.00;85573;1339;22544;-80
2022/04/28 01:56:09;;;;;;;;;;;;;;;3.33;73.80;101371.39;85548;1336;23191;-73
2022/04/28 01:58:14;;;;;;;;;;;;;;;3.36;73.67;101372.13;85573;1338;23277;-73
2022/04/28 02:00:19;;;;;;;;;;;;;;;3.38;73.68;101374.71;85566;1336;22587;-73
2022/04/28 02:02:26;;;;;;;;;;;;;;;3.38;73.73;101378.85;85569;1339;23151;-73
2022/04/28 02:04:31;;;;;;;;;;;;;;;3.37;73.47;101381.09;85569;1340;23210;-73
2022/04/28 02:06:39;;;;;;;;;;;;;;;3.33;73.48;101381.75;85555;1339;22740;-73
2022/04/28 02:08:45;;;;;;;;;;;;;;;3.28;73.46;101381.53;85569;1336;23294;-73
2022/04/28 02:10:50;;;;;;;;;;;;;;;3.22;73.41;101383.38;85574;1340;22620;-73
2022/04/28 02:12:55;;;;;;;;;;;;;;;3.17;73.43;101380.56;85493;1339;23148;-73
2022/04/28 02:15:03;;;;;;;;;;;;;;;3.10;73.37;101381.39;85512;1341;22551;-73
2022/04/28 02:17:08;;;;;;;;;;;;;;;3.04;73.45;101384.61;85564;1339;22557;-73
2022/04/28 02:19:13;;;;;;;;;;;;;;;2.99;73.34;101389.73;85547;1339;22575;-73
2022/04/28 02:21:18;;;;;;;;;;;;;;;2.93;73.57;101390.53;85567;1339;22505;-73
2022/04/28 02:23:23;;;;;;;;;;;;;;;2.88;73.63;101390.48;85564;1336;22620;-73
2022/04/28 02:25:28;;;;;;;;;;;;;;;2.85;73.70;101388.55;85567;1339;23108;-80
2022/04/28 02:27:36;;;;;;;;;;;;;;;2.81;73.77;101389.73;85561;1340;23131;-80
2022/04/28 02:29:43;;;;;;;;;;;;;;;2.78;73.94;101388.15;85578;1341;22518;-73
2022/04/28 02:31:48;;;;;;;;;;;;;;;2.77;73.92;101388.83;85454;1337;22663;-74
2022/04/28 02:33:53;;;;;;;;;;;;;;;2.74;73.76;101384.30;85503;1339;22497;-73
2022/04/28 02:36:01;;;;;;;;;;;;;;;2.67;73.84;101387.00;85526;1339;23321;-74
2022/04/28 02:38:06;;;;;;;;;;;;;;;2.61;73.94;101387.96;85571;1335;22588;-73
2022/04/28 02:40:11;;;;;;;;;;;;;;;2.56;74.09;101386.89;85523;1339;22506;-79
2022/04/28 02:42:16;;;;;;;;;;;;;;;2.53;74.07;101383.75;85332;1340;22549;-79
2022/04/28 02:44:23;;;;;;;;;;;;;;;2.47;73.97;101383.16;85584;1337;23331;-79
2022/04/28 02:46:31;;;;;;;;;;;;;;;2.39;73.97;101379.96;85577;1339;23122;-80
2022/04/28 02:48:39;;;;;;;;;;;;;;;2.32;74.40;101378.51;85566;1341;22527;-79
2022/04/28 02:50:44;;;;;;;;;;;;;;;2.29;74.44;101381.05;85588;1340;22626;-72
2022/04/28 02:52:49;;;;;;;;;;;;;;;2.26;74.53;101381.02;85583;1341;22534;-73
2022/04/28 02:54:54;;;;;;;;;;;;;;;2.24;74.65;101377.73;85320;1342;23213;-73
2022/04/28 02:57:01;;;;;;;;;;;;;;;2.23;74.70;101377.19;85564;1339;23154;-73
2022/04/28 02:59:06;;;;;;;;;;;;;;;2.18;74.74;101373.36;85565;1339;23260;-74
2022/04/28 03:01:11;;;;;;;;;;;;;;;2.17;74.99;101377.64;85558;1336;23306;-73
2022/04/28 03:03:16;;;;;;;;;;;;;;;2.16;75.11;101382.09;85425;1339;22597;-73
2022/04/28 03:05:24;;;;;;;;;;;;;;;2.17;75.25;101383.83;85582;1339;22520;-73
2022/04/28 03:12:18;;;;;;;;;;;;;;;2.16;75.46;101392.44;85562;1336;22619;-79
2022/04/28 03:14:26;;;;;;;;;;;;;;;2.14;75.33;101391.20;85536;1341;22491;-73
2022/04/28 03:16:32;;;;;;;;;;;;;;;2.13;75.47;101394.12;85564;1341;22477;-73
2022/04/28 03:18:37;;;;;;;;;;;;;;;2.16;75.62;101396.55;85550;1339;22653;-73
2022/04/28 03:20:42;;;;;;;;;;;;;;;2.19;75.91;101398.66;85567;1339;23271;-73
2022/04/28 03:22:48;;;;;;;;;;;;;;;2.23;75.76;101398.38;85537;1339;23186;-73
2022/04/28 03:24:53;;;;;;;;;;;;;;;2.27;75.94;101398.25;85577;1336;22482;-73
2022/04/28 03:27:00;;;;;;;;;;;;;;;2.32;75.98;101398.84;85540;1339;23127;-72
2022/04/28 03:29:05;;;;;;;;;;;;;;;2.38;75.85;101398.21;85585;1338;22447;-78
2022/04/28 03:31:12;;;;;;;;;;;;;;;2.46;76.25;101401.57;85541;1341;22459;-80
2022/04/28 03:33:20;;;;;;;;;;;;;;;2.56;76.05;101399.79;85572;1336;22564;-80
2022/04/28 03:35:27;;;;;;;;;;;;;;;2.65;76.17;101402.31;85592;1336;23076;-73
2022/04/28 03:37:32;;;;;;;;;;;;;;;2.74;75.99;101398.79;85506;1339;22491;-73
2022/04/28 03:39:37;;;;;;;;;;;;;;;2.79;75.93;101397.30;85542;1341;23198;-73
2022/04/28 03:41:42;;;;;;;;;;;;;;;2.86;76.00;101398.21;85540;1339;22507;-73
2022/04/28 03:43:46;;;;;;;;;;;;;;;2.93;76.21;101398.11;85564;1336;22487;-73
2022/04/28 03:45:54;;;;;;;;;;;;;;;3.01;76.20;101403.19;85584;1336;22483;-80
2022/04/28 03:48:02;;;;;;;;;;;;;;;3.10;76.09;101403.45;85576;1341;23084;-80
2022/04/28 03:50:08;;;;;;;;;;;;;;;3.23;76.20;101403.73;85576;1336;23056;-73
2022/04/28 03:52:17;;;;;;;;;;;;;;;3.37;75.66;101402.30;85562;1336;23130;-73
2022/04/28 03:54:21;;;;;;;;;;;;;;;3.53;75.40;101404.66;85567;1339;22577;-73
2022/04/28 03:56:26;;;;;;;;;;;;;;;3.69;75.06;101405.64;85582;1339;23246;-73
2022/04/28 03:58:31;;;;;;;;;;;;;;;3.88;75.12;101406.63;85577;1336;22599;-73
2022/04/28 04:00:36;;;;;;;;;;;;;;;4.39;76.27;101403.77;85560;1338;22461;-81
2022/04/28 04:02:44;;;;;;;;;;;;;;;5.19;76.31;101407.23;85547;1341;22482;-80
2022/04/28 04:04:48;;;;;;;;;;;;;;;5.97;75.53;101397.31;85543;1332;23236;-73
2022/04/28 04:06:53;;;;;;;;;;;;;;;6.67;74.56;101391.31;85539;1341;23269;-73
2022/04/28 04:09:01;;;;;;;;;;;;;;;7.04;72.33;101391.09;85567;1338;22445;-73
2022/04/28 04:11:09;;;;;;;;;;;;;;;7.07;69.95;101393.14;85568;1341;23167;-73
2022/04/28 04:13:14;;;;;;;;;;;;;;;6.96;68.42;101400.52;85369;1341;22436;-73
2022/04/28 04:15:18;;;;;;;;;;;;;;;6.82;67.37;101403.38;85544;1339;22464;-73
2022/04/28 04:17:26;;;;;;;;;;;;;;;6.70;67.32;101406.55;85572;1336;23152;-73
2022/04/28 04:19:33;;;;;;;;;;;;;;;6.63;66.67;101409.38;85577;1336;22515;-73
2022/04/28 04:21:38;;;;;;;;;;;;;;;6.58;66.61;101411.64;85579;1336;22471;-75
2022/04/28 04:23:43;;;;;;;;;;;;;;;6.57;66.57;101414.27;85435;1338;22482;-73
2022/04/28 04:25:48;;;;;;;;;;;;;;;6.57;66.22;101415.30;85563;1339;23113;-74
2022/04/28 04:27:52;;;;;;;;;;;;;;;6.58;66.07;101418.40;85579;1336;22505;-73
2022/04/28 04:29:57;;;;;;;;;;;;;;;6.60;65.81;101419.27;85571;1337;23111;-80
2022/04/28 04:32:25;;;;;;;;;;;;;;;6.65;65.70;101423.07;85574;1339;22482;-81
2022/04/28 04:34:29;;;;;;;;;;;;;;;6.69;65.46;101421.65;85581;1340;22633;-80
2022/04/28 04:36:34;;;;;;;;;;;;;;;6.75;65.64;101423.70;84150;1339;1006109;-80
2022/04/28 04:38:39;;;;;;;;;;;;;;;6.78;64.96;101424.04;85554;1337;23162;-80
2022/04/28 04:40:43;;;;;;;;;;;;;;;6.80;64.55;101425.75;85579;1338;23134;-73
2022/04/28 04:42:48;;;;;;;;;;;;;;;6.83;64.59;101426.95;85566;1337;22503;-73
2022/04/28 04:44:52;;;;;;;;;;;;;;;6.86;64.12;101428.33;85579;1339;23226;-80
2022/04/28 04:46:56;;;;;;;;;;;;;;;6.89;63.77;101427.96;85565;1338;23096;-81
2022/04/28 04:49:01;;;;;;;;;;;;;;;6.94;63.95;101431.74;85569;1336;22452;-81
2022/04/28 04:51:06;;;;;;;;;;;;;;;7.06;64.17;101434.27;85570;1339;23264;-73
2022/04/28 04:53:10;;;;;;;;;;;;;;;7.16;63.88;101433.17;85569;1339;22449;-73
2022/04/28 04:55:16;;;;;;;;;;;;;;;7.22;63.64;101429.99;85557;1336;23085;-73
2022/04/28 04:57:20;;;;;;;;;;;;;;;7.30;63.34;101426.81;85563;1339;23141;-73
2022/04/28 04:59:28;;;;;;;;;;;;;;;7.35;63.05;101422.27;85574;1338;22534;-81
2022/04/28 05:01:33;;;;;;;;;;;;;;;7.42;63.18;101420.48;85583;1338;23121;-80
2022/04/28 05:03:38;;;;;;;;;;;;;;;7.50;63.04;101420.75;85388;1336;261031;-80
2022/04/28 05:05:44;;;;;;;;;;;;;;;7.64;62.90;101420.81;85578;1336;23103;-80
2022/04/28 05:07:51;;;;;;;;;;;;;;;7.80;62.93;101418.40;85570;1339;22536;-81
2022/04/28 05:09:56;;;;;;;;;;;;;;;8.13;62.73;101422.73;85572;1339;22454;-80
2022/04/28 05:12:05;;;;;;;;;;;;;;;8.46;62.34;101419.24;85565;1339;22459;-81
2022/04/28 05:14:10;;;;;;;;;;;;;;;8.68;61.46;101425.59;85557;1338;23112;-74
2022/04/28 05:16:14;;;;;;;;;;;;;;;8.76;60.82;101429.65;85557;1339;23117;-74
2022/04/28 05:18:19;;;;;;;;;;;;;;;8.83;60.38;101432.16;85551;1336;22517;-73
2022/04/28 05:20:23;;;;;;;;;;;;;;;8.91;60.37;101432.39;85549;1336;22625;-75
2022/04/28 05:22:28;;;;;;;;;;;;;;;9.00;60.01;101432.27;85566;1337;22503;-74
2022/04/28 05:24:33;;;;;;;;;;;;;;;9.16;60.13;101431.34;85573;1339;23127;-73
2022/04/28 05:26:37;;;;;;;;;;;;;;;9.43;60.16;101428.98;85556;1339;23012;-73
2022/04/28 05:28:42;;;;;;;;;;;;;;;9.59;59.50;101427.33;85563;1339;22466;-73
2022/04/28 05:30:47;;;;;;;;;;;;;;;9.72;59.23;101428.15;85575;1336;22458;-73
2022/04/28 05:32:52;;;;;;;;;;;;;;;9.86;59.07;101432.79;85559;1338;22445;-73
2022/04/28 05:34:57;;;;;;;;;;;;;;;10.11;59.10;101435.64;85553;1338;22505;-81
2022/04/28 05:37:02;;;;;;;;;;;;;;;10.62;59.29;101433.42;85536;1338;23104;-81
2022/04/28 05:39:07;;;;;;;;;;;;;;;11.21;58.05;101434.88;85536;1339;22475;-74
2022/04/28 05:41:12;;;;;;;;;;;;;;;11.86;57.85;101434.84;85541;1338;23130;-74
2022/04/28 05:45:43;;;;;;;;;;;;;;;13.60;53.44;101434.08;85563;1336;23083;-81
2022/04/28 05:47:49;;;;;;;;;;;;;;;13.96;50.65;101427.38;85584;1339;22546;-74
2022/04/28 05:49:54;;;;;;;;;;;;;;;14.11;49.74;101432.45;85552;1338;22996;-81
2022/04/28 05:51:58;;;;;;;;;;;;;;;14.06;49.25;101435.46;85569;1341;22491;-82
2022/04/28 05:54:06;;;;;;;;;;;;;;;13.96;48.54;101434.23;85540;1341;22535;-77
2022/04/28 05:56:11;;;;;;;;;;;;;;;13.88;47.93;101437.83;85529;1338;23254;-74
2022/04/28 05:58:16;;;;;;;;;;;;;;;13.73;48.02;101449.23;85540;1338;23165;-74
2022/04/28 06:00:21;;;;;;;;;;;;;;;13.44;47.82;101450.72;85535;1339;22604;-74
2022/04/28 06:02:26;;;;;;;;;;;;;;;13.18;47.82;101452.95;85545;1336;23216;-74
2022/04/28 06:04:31;;;;;;;;;;;;;;;13.00;48.32;101460.70;85560;1336;23215;-81
2022/04/28 06:06:36;;;;;;;;;;;;;;;12.83;48.77;101458.55;85543;1336;22504;-81
2022/04/28 06:08:40;;;;;;;;;;;;;;;12.72;49.16;101463.80;85569;1339;23065;-82
2022/04/28 06:10:45;;;;;;;;;;;;;;;12.70;49.40;101471.90;85549;1338;22489;-82
2022/04/28 06:12:49;;;;;;;;;;;;;;;12.70;49.61;101474.88;85531;1338;23092;-82
2022/04/28 06:14:54;;;;;;;;;;;;;;;12.68;49.16;101476.52;85541;1338;22492;-74
2022/04/28 06:17:01;;;;;;;;;;;;;;;12.57;48.93;101467.89;85527;1338;22467;-74
2022/04/28 06:19:07;;;;;;;;;;;;;;;12.53;49.17;101464.33;85511;1339;22447;-78
2022/04/28 06:21:11;;;;;;;;;;;;;;;12.61;49.59;101464.63;85556;1340;22451;-81
2022/04/28 06:23:19;;;;;;;;;;;;;;;13.12;49.73;101472.77;85542;1336;23016;-81
2022/04/28 06:25:24;;;;;;;;;;;;;;;13.61;48.77;101472.62;85559;1336;23153;-82
2022/04/28 06:27:30;;;;;;;;;;;;;;;13.76;47.30;101466.52;85575;1339;22502;-81
2022/04/28 06:29:34;;;;;;;;;;;;;;;13.72;47.10;101471.71;85552;1336;22514;-74
2022/04/28 06:31:40;;;;;;;;;;;;;;;13.74;46.83;101472.89;85534;1341;22567;-74
2022/04/28 06:33:45;;;;;;;;;;;;;;;13.66;46.46;101473.48;85554;1336;23086;-74
2022/04/28 06:35:55;;;;;;;;;;;;;;;13.41;46.14;101476.09;85479;1339;22509;-74
2022/04/28 06:38:01;;;;;;;;;;;;;;;13.10;46.61;101482.42;85555;1339;23163;-74
2022/04/28 06:40:12;;;;;;;;;;;;;;;12.83;46.61;101479.73;85559;1338;22488;-82
2022/04/28 06:42:20;;;;;;;;;;;;;;;12.53;47.18;101483.98;85516;1341;22534;-81
2022/04/28 06:44:28;;;;;;;;;;;;;;;12.27;47.43;101483.62;85549;1339;23312;-80
2022/04/28 06:46:37;;;;;;;;;;;;;;;12.06;48.00;101483.14;85525;1337;23034;-81
2022/04/28 06:48:41;;;;;;;;;;;;;;;11.87;48.56;101483.62;85520;1339;23048;-81
2022/04/28 06:50:50;;;;;;;;;;;;;;;11.69;48.52;101482.83;85553;1339;22454;-74
2022/04/28 06:52:59;;;;;;;;;;;;;;;11.52;48.66;101482.19;85505;1339;23155;-74
2022/04/28 06:55:09;;;;;;;;;;;;;;;11.35;49.19;101483.81;85547;1341;22495;-75
2022/04/28 06:57:19;;;;;;;;;;;;;;;11.22;49.13;101479.93;85541;1340;23081;-74
2022/04/28 06:59:27;;;;;;;;;;;;;;;11.09;49.54;101476.55;85519;1339;23225;-81
2022/04/28 07:01:38;;;;;;;;;;;;;;;10.98;49.89;101480.30;85572;1339;22501;-82
2022/04/28 07:03:48;;;;;;;;;;;;;;;10.85;50.32;101481.42;85406;1338;22568;-80
2022/04/28 07:05:56;;;;;;;;;;;;;;;10.76;50.41;101484.96;85287;1340;23299;-80
2022/04/28 07:08:08;;;;;;;;;;;;;;;10.67;50.77;101487.92;85554;1337;22509;-80
2022/04/28 07:10:18;;;;;;;;;;;;;;;10.59;51.14;101483.38;85529;1338;22538;-78
2022/04/28 07:12:29;;;;;;;;;;;;;;;10.54;51.29;101485.23;85388;1338;23208;-75
2022/04/28 07:14:36;;;;;;;;;;;;;;;10.49;51.22;101480.45;85525;1339;22542;-75
2022/04/28 07:16:46;;;;;;;;;;;;;;;10.48;51.50;101480.98;85552;1336;23210;-74
2022/04/28 07:18:51;;;;;;;;;;;;;;;10.48;51.71;101481.34;85529;1339;23180;-74
2022/04/28 07:20:58;;;;;;;;;;;;;;;10.47;51.77;101483.98;84805;1334;1003210;-75
2022/04/28 07:23:05;;;;;;;;;;;;;;;10.50;51.82;101486.34;85522;1338;22617;-75
2022/04/28 07:25:12;;;;;;;;;;;;;;;10.56;52.14;101483.09;85531;1338;23051;-81
2022/04/28 07:27:18;;;;;;;;;;;;;;;10.61;51.53;101484.73;85572;1339;22460;-80
2022/04/28 07:29:26;;;;;;;;;;;;;;;10.61;51.69;101486.13;85577;1336;22709;-76
2022/04/28 07:31:36;;;;;;;;;;;;;;;10.62;51.52;101489.62;85554;1336;22480;-75
2022/04/28 07:33:41;;;;;;;;;;;;;;;10.59;51.50;101488.97;85577;1336;22450;-75
2022/04/28 07:35:46;;;;;;;;;;;;;;;10.57;51.71;101487.95;85587;1339;22495;-78
2022/04/28 07:37:58;;;;;;;;;;;;;;;10.56;51.62;101489.19;84844;1338;1002363;-80
2022/04/28 07:40:02;;;;;;;;;;;;;;;10.56;51.58;101490.59;85549;1338;22470;-79
2022/04/28 07:42:10;;;;;;;;;;;;;;;10.57;51.94;101492.49;85538;1339;23024;-79
2022/04/28 07:44:18;;;;;;;;;;;;;;;10.61;51.80;101490.85;85527;1339;23143;-75
2022/04/28 07:46:30;;;;;;;;;;;;;;;10.65;51.66;101492.86;85536;1339;22993;-75
2022/04/28 07:48:40;;;;;;;;;;;;;;;10.70;51.55;101493.98;85521;1337;23016;-74
2022/04/28 07:50:47;;;;;;;;;;;;;;;10.79;52.04;101488.38;85578;1339;23119;-79
2022/04/28 07:52:54;;;;;;;;;;;;;;;10.90;52.21;101488.48;85537;1338;22535;-79
2022/04/28 07:54:59;;;;;;;;;;;;;;;11.11;52.23;101493.46;85547;1333;22498;-79
2022/04/28 07:57:05;;;;;;;;;;;;;;;11.42;52.53;101493.09;85538;1341;23156;-79
2022/04/28 07:59:11;;;;;;;;;;;;;;;12.21;53.18;101491.30;85570;1336;23108;-79
2022/04/28 08:01:17;;;;;;;;;;;;;;;13.09;51.63;101493.69;85520;1339;23011;-80
2022/04/28 08:03:24;;;;;;;;;;;;;;;13.96;49.96;101490.21;85544;1336;23177;-80
2022/04/28 08:05:35;;;;;;;;;;;;;;;14.63;48.39;101489.06;85519;1340;22516;-80
2022/04/28 08:07:40;;;;;;;;;;;;;;;15.12;46.57;101487.74;85545;1339;22504;-80
2022/04/28 08:09:46;;;;;;;;;;;;;;;15.55;45.63;101489.89;85550;1338;23128;-75
2022/04/28 08:11:52;;;;;;;;;;;;;;;16.06;44.80;101486.71;85563;1336;22948;-75
2022/04/28 08:13:56;;;;;;;;;;;;;;;16.30;43.52;101491.69;85536;1338;22473;-75
2022/04/28 08:16:06;;;;;;;;;;;;;;;16.28;42.36;101491.05;85525;1339;22494;-75
2022/04/28 08:18:12;;;;;;;;;;;;;;;16.26;41.90;101489.36;85567;1332;23012;-76
2022/04/28 08:20:21;;;;;;;;;;;;;;;16.57;41.63;101490.80;85539;1338;22639;-85
2022/04/28 08:22:28;;;;;;;;;;;;;;;16.98;40.67;101490.71;85526;1338;23522;-87
2022/04/28 08:24:36;;;;;;;;;;;;;;;17.14;40.33;101495.05;85556;1340;22664;-75
2022/04/28 08:26:44;;;;;;;;;;;;;;;17.27;40.35;101496.59;85539;1336;22497;-75
2022/04/28 08:28:52;;;;;;;;;;;;;;;17.75;40.41;101497.77;85524;1338;22470;-75
2022/04/28 08:31:05;;;;;;;;;;;;;;;18.57;39.24;101490.54;85562;1338;22561;-75
2022/04/28 08:33:10;;;;;;;;;;;;;;;19.63;37.80;101486.06;85445;1339;22468;-75
2022/04/28 08:35:18;;;;;;;;;;;;;;;20.50;36.80;101487.42;85564;1341;22634;-89
2022/04/28 08:37:26;;;;;;;;;;;;;;;21.37;34.87;101491.27;85526;1339;22479;-91
2022/04/28 08:39:34;;;;;;;;;;;;;;;22.14;33.16;101484.73;85573;1337;22546;-75
2022/04/28 08:41:44;;;;;;;;;;;;;;;22.74;32.92;101482.63;85561;1336;22552;-75
2022/04/28 08:43:50;;;;;;;;;;;;;;;23.42;31.93;101482.89;85572;1336;22547;-75
2022/04/28 08:48:29;;;;;;;;;;;;;;;24.54;30.14;101473.25;85593;1336;22500;-86
2022/04/28 08:50:35;;;;;;;;;;;;;;;25.15;28.73;101479.09;85410;1339;22497;-78
2022/04/28 08:52:43;;;;;;;;;;;;;;;25.38;28.42;101473.75;85557;1337;22505;-78
2022/04/28 08:54:48;;;;;;;;;;;;;;;25.60;27.68;101469.95;85584;1336;23042;-88
2022/04/28 08:56:55;;;;;;;;;;;;;;;25.73;27.60;101466.71;85572;1339;23058;-87
2022/04/28 08:59:01;;;;;;;;;;;;;;;25.83;26.80;101471.44;85548;1338;23180;-86
2022/04/28 09:01:06;;;;;;;;;;;;;;;26.09;27.00;101468.81;85543;1338;22482;-82
2022/04/28 09:03:11;;;;;;;;;;;;;;;26.48;26.54;101468.53;85541;1339;23156;-82
2022/04/28 09:05:18;;;;;;;;;;;;;;;26.61;25.79;101469.52;85551;1336;23106;-76
2022/04/28 09:07:36;;;;;;;;;;;;;;;26.64;25.45;101469.11;85541;1339;22451;-76
2022/04/28 09:09:41;;;;;;;;;;;;;;;26.80;25.17;101465.02;85583;1336;22572;-82
2022/04/28 09:11:46;;;;;;;;;;;;;;;26.94;25.03;101466.72;85543;1339;23049;-82
2022/04/28 09:14:09;;;;;;;;;;;;;;;27.10;24.16;101464.27;85551;1339;22454;-83
2022/04/28 09:16:27;;;;;;;;;;;;;;;27.17;24.48;101467.52;85552;1337;22497;-82
2022/04/28 09:18:32;;;;;;;;;;;;;;;27.14;23.95;101467.27;85423;1338;22557;-82
2022/04/28 09:20:38;;;;;;;;;;;;;;;27.07;24.34;101463.80;85601;1336;23187;-82
2022/04/28 09:22:44;;;;;;;;;;;;;;;26.93;24.06;101467.55;85565;1338;23194;-82
2022/04/28 09:24:55;;;;;;;;;;;;;;;26.66;24.16;101466.17;85595;1333;22518;-76
2022/04/28 09:27:02;;;;;;;;;;;;;;;26.41;24.79;101467.90;85581;1336;22504;-76
2022/04/28 09:29:10;;;;;;;;;;;;;;;26.24;24.75;101468.48;85565;1338;22464;-76
2022/04/28 09:31:16;;;;;;;;;;;;;;;26.09;24.78;101467.24;85577;1336;22445;-76
2022/04/28 09:33:23;;;;;;;;;;;;;;;25.86;24.93;101465.67;85578;1336;23312;-76
2022/04/28 09:35:28;;;;;;;;;;;;;;;25.59;25.58;101468.45;85574;1339;22473;-76
2022/04/28 09:37:33;;;;;;;;;;;;;;;25.28;24.98;101475.98;85608;1339;22948;-76
2022/04/28 09:44:28;;;;;;;;;;;;;;;24.10;25.95;101469.40;85538;1339;23075;-82
2022/04/28 09:46:33;;;;;;;;;;;;;;;23.86;26.49;101471.56;85523;1339;22531;-81
2022/04/28 09:48:38;;;;;;;;;;;;;;;23.60;26.23;101475.65;85528;1338;22564;-81
2022/04/28 09:50:43;;;;;;;;;;;;;;;23.22;26.83;101473.67;85542;1338;23104;-81
2022/04/28 09:52:53;;;;;;;;;;;;;;;22.95;26.74;101477.04;85382;1339;22535;-81
2022/04/28 09:54:59;;;;;;;;;;;;;;;22.73;27.09;101475.09;85533;1338;22572;-81
2022/04/28 09:57:07;;;;;;;;;;;;;;;22.65;27.84;101474.38;85552;1336;22511;-81
2022/04/28 09:59:13;;;;;;;;;;;;;;;22.52;27.59;101471.21;85547;1339;23161;-76
2022/04/28 10:01:21;;;;;;;;;;;;;;;22.43;27.61;101467.23;85528;1338;22477;-76
2022/04/28 10:03:26;;;;;;;;;;;;;;;22.14;27.61;101465.03;85488;1339;23217;-76
2022/04/28 10:05:33;;;;;;;;;;;;;;;21.78;28.07;101479.02;85565;1336;23190;-77
2022/04/28 10:07:41;;;;;;;;;;;;;;;21.56;28.79;101471.94;85524;1339;23474;-76
2022/04/28 10:09:51;;;;;;;;;;;;;;;21.28;29.18;101476.45;85527;1338;23128;-80
2022/04/28 10:11:59;;;;;;;;;;;;;;;20.88;29.68;101473.90;85485;1339;23239;-81
2022/04/28 10:14:04;;;;;;;;;;;;;;;20.66;30.16;101472.44;85549;1336;23247;-77
2022/04/28 10:16:11;;;;;;;;;;;;;;;20.72;30.44;101469.39;85481;1339;23179;-76
2022/04/28 10:18:17;;;;;;;;;;;;;;;20.84;29.75;101466.27;85559;1336;22460;-76
2022/04/28 10:20:24;;;;;;;;;;;;;;;20.87;29.89;101465.59;85527;1339;22545;-80
2022/04/28 10:22:31;;;;;;;;;;;;;;;20.93;30.27;101466.83;85541;1336;23174;-84
2022/04/28 10:34:21;;;;;;;;;;;;;;;21.14;30.46;101470.77;85527;1337;23228;-79
2022/04/28 10:36:30;;;;;;;;;;;;;;;20.90;30.41;101467.71;85492;1337;22643;-85
2022/04/28 10:38:35;;;;;;;;;;;;;;;20.70;30.67;101466.35;85507;1334;22493;-77
2022/04/28 10:40:42;;;;;;;;;;;;;;;20.62;30.71;101462.02;85522;1337;22569;-81
2022/04/28 10:43:01;;;;;;;;;;;;;;;20.52;30.82;101464.80;85550;1336;22445;-85
2022/04/28 10:45:22;;;;;;;;;;;;;;;20.47;30.56;101468.09;85523;1339;22610;-75
2022/04/28 10:47:36;;;;;;;;;;;;;;;20.21;30.00;101469.14;85514;1339;22510;-75
2022/04/28 10:49:43;;;;;;;;;;;;;;;19.88;31.29;101472.00;85576;1339;23219;-76
2022/04/28 10:51:48;;;;;;;;;;;;;;;19.72;31.39;101472.45;85561;1338;22497;-75
2022/04/28 10:54:06;;;;;;;;;;;;;;;19.44;31.63;101471.76;85541;1338;22473;-76
2022/04/28 10:56:13;;;;;;;;;;;;;;;19.07;32.10;101472.59;85566;1336;23073;-81
2022/04/28 10:58:21;;;;;;;;;;;;;;;18.96;32.96;101470.05;85579;1336;22476;-81
2022/04/28 11:00:34;;;;;;;;;;;;;;;19.02;32.88;101475.70;85566;1339;22572;-75
2022/04/28 11:02:43;;;;;;;;;;;;;;;19.07;32.64;101469.79;85553;1338;23292;-75
2022/04/28 11:04:53;;;;;;;;;;;;;;;19.07;32.83;101471.35;85574;1335;22528;-81
2022/04/28 11:07:08;;;;;;;;;;;;;;;19.07;32.91;101475.77;85573;1338;22469;-76
2022/04/28 11:09:13;;;;;;;;;;;;;;;19.10;33.24;101473.65;85574;1338;23250;-79
2022/04/28 11:11:19;;;;;;;;;;;;;;;19.10;32.84;101475.64;85577;1339;22476;-75
2022/04/28 11:13:28;;;;;;;;;;;;;;;19.00;32.54;101471.19;85586;1339;23114;-75
2022/04/28 11:15:43;;;;;;;;;;;;;;;18.98;32.75;101472.05;85586;1339;22971;-81
2022/04/28 11:17:51;;;;;;;;;;;;;;;19.01;32.47;101470.30;85593;1336;22688;-80
2022/04/28 11:20:02;;;;;;;;;;;;;;;18.93;32.11;101469.15;85592;1339;22492;-80
2022/04/28 11:22:07;;;;;;;;;;;;;;;18.85;32.39;101468.17;85588;1338;22659;-79
2022/04/28 11:24:12;;;;;;;;;;;;;;;18.71;32.61;101470.88;85569;1341;23205;-76
2022/04/28 11:26:21;;;;;;;;;;;;;;;18.46;32.85;101470.05;85589;1336;22614;-76
2022/04/28 11:28:27;;;;;;;;;;;;;;;18.17;33.23;101470.92;85426;1339;23160;-76